Time;durP1;ratioP1;P1;durP2;ratioP2;P2;SDS_P1;SDS_P2;PMS_P1;PMS_P2;Temp;Humidity;BMP_temperature;BMP_pressure;BME280_temperature;BME280_humidity;BME280_pressure;Samples;Min_cycle;Max_cycle;Signal;HPM_P1;HPM_P2
2021/07/04 00:02:07;;;;;;;2.10;1.90;;;19.90;78.70;;;;;;10430719;28;20213;-31
2021/07/04 00:07:29;;;;;;;2.50;2.30;;;19.90;78.60;;;;;;10413723;28;20221;-31
2021/07/04 00:12:51;;;;;;;2.60;2.40;;;19.80;78.60;;;;;;10413741;28;20665;-29
2021/07/04 00:18:18;;;;;;;2.40;2.20;;;19.90;78.60;;;;;;10415596;28;20217;-31
2021/07/04 00:23:40;;;;;;;2.40;2.20;;;19.80;78.60;;;;;;10417460;28;20677;-33
2021/07/04 00:29:02;;;;;;;2.60;2.30;;;19.90;78.50;;;;;;10444570;28;20584;-31
2021/07/04 00:34:25;;;;;;;1.93;1.83;;;19.90;78.60;;;;;;10453408;28;20735;-31
2021/07/04 00:39:48;;;;;;;2.33;2.13;;;19.90;78.50;;;;;;10452522;28;20197;-29
2021/07/04 00:45:12;;;;;;;2.40;2.20;;;19.80;78.60;;;;;;10453246;28;20213;-30
2021/07/04 00:50:36;;;;;;;2.33;2.13;;;19.80;78.60;;;;;;10432465;28;20201;-30
2021/07/04 00:55:59;;;;;;;2.50;2.30;;;19.80;78.50;;;;;;10424883;28;20231;-30
2021/07/04 01:01:21;;;;;;;2.47;2.27;;;19.80;78.50;;;;;;10452384;28;20197;-34
2021/07/04 01:06:45;;;;;;;2.30;2.10;;;19.80;78.50;;;;;;10453100;28;20217;-33
2021/07/04 01:12:08;;;;;;;3.47;2.60;;;19.80;78.50;;;;;;10453102;28;20197;-32
2021/07/04 01:17:33;;;;;;;2.83;2.53;;;19.90;78.60;;;;;;10449806;28;20248;-30
2021/07/04 01:22:58;;;;;;;2.50;2.30;;;19.90;78.60;;;;;;10423162;28;20193;-32
2021/07/04 01:28:21;;;;;;;2.43;2.23;;;19.80;78.30;;;;;;10409850;28;20218;-32
2021/07/04 01:33:43;;;;;;;2.57;2.37;;;19.90;78.40;;;;;;10455781;28;20204;-34
2021/07/04 01:39:08;;;;;;;3.00;2.70;;;19.80;78.40;;;;;;10442243;28;20213;-29
2021/07/04 01:44:30;;;;;;;2.40;2.20;;;19.80;78.30;;;;;;10423223;28;20224;-34
2021/07/04 01:49:52;;;;;;;2.60;2.40;;;19.80;78.30;;;;;;10424054;28;20197;-32
2021/07/04 01:55:17;;;;;;;2.50;2.30;;;19.80;78.30;;;;;;10423735;28;20689;-31
2021/07/04 02:00:40;;;;;;;2.40;2.20;;;19.80;78.40;;;;;;10457599;28;20715;-33
2021/07/04 02:06:02;;;;;;;3.47;2.70;;;19.80;78.30;;;;;;10464577;28;20216;-30
2021/07/04 02:11:26;;;;;;;2.27;2.07;;;19.80;78.20;;;;;;10464734;28;20680;-30
2021/07/04 02:16:48;;;;;;;2.40;2.20;;;19.80;78.20;;;;;;10464335;28;20221;-32
2021/07/04 02:22:12;;;;;;;2.17;2.07;;;19.80;78.30;;;;;;10464776;28;20209;-30
2021/07/04 02:27:35;;;;;;;2.10;1.97;;;19.80;78.10;;;;;;10464562;28;20292;-33
2021/07/04 02:33:01;;;;;;;2.57;2.37;;;19.80;78.30;;;;;;10442637;28;20201;-30
2021/07/04 02:38:23;;;;;;;2.57;2.37;;;19.80;78.10;;;;;;10424403;28;20217;-32
2021/07/04 02:43:47;;;;;;;2.30;2.10;;;19.80;78.10;;;;;;10422692;28;20208;-37
2021/07/04 02:49:09;;;;;;;2.40;2.20;;;19.80;78.10;;;;;;10439556;28;20291;-32
2021/07/04 02:54:31;;;;;;;2.50;2.30;;;19.80;78.10;;;;;;10417070;28;20229;-30
2021/07/04 02:59:55;;;;;;;2.60;2.40;;;19.80;78.10;;;;;;10424031;28;20198;-33
2021/07/04 03:05:18;;;;;;;2.30;2.10;;;19.80;78.10;;;;;;10414676;28;20221;-30
2021/07/04 03:10:40;;;;;;;2.70;2.37;;;19.80;78.10;;;;;;10414694;28;20194;-30
2021/07/04 03:16:03;;;;;;;2.80;2.50;;;19.80;78.00;;;;;;10414307;28;20232;-35
2021/07/04 03:21:25;;;;;;;2.53;2.33;;;19.80;78.00;;;;;;10430230;28;20193;-31
2021/07/04 03:26:47;;;;;;;2.43;2.23;;;19.80;78.10;;;;;;10470557;22;20240;-25
2021/07/04 03:32:11;;;;;;;2.67;2.40;;;19.80;78.00;;;;;;10455259;28;20204;-24
2021/07/04 03:37:34;;;;;;;2.47;2.27;;;19.80;78.00;;;;;;10452666;28;20216;-24
2021/07/04 03:42:58;;;;;;;2.57;2.37;;;19.80;77.90;;;;;;10454131;28;20576;-25
2021/07/04 03:48:21;;;;;;;2.43;2.10;;;19.80;78.00;;;;;;10419836;28;20296;-26
2021/07/04 03:53:43;;;;;;;2.47;2.27;;;19.80;78.00;;;;;;10413836;28;20204;-24
2021/07/04 03:59:05;;;;;;;2.40;2.20;;;19.80;78.00;;;;;;10443008;28;20696;-24
2021/07/04 04:04:30;;;;;;;2.60;2.40;;;19.80;77.90;;;;;;10453953;28;20224;-24
2021/07/04 04:09:53;;;;;;;2.70;2.50;;;19.80;78.00;;;;;;10455514;28;20204;-23
2021/07/04 04:15:16;;;;;;;2.53;2.33;;;19.80;78.00;;;;;;10454369;28;20228;-25
2021/07/04 04:20:39;;;;;;;3.10;2.20;;;19.80;78.00;;;;;;10454742;28;20200;-24
2021/07/04 04:26:03;;;;;;;2.50;2.30;;;19.80;78.00;;;;;;10445026;28;20235;-24
2021/07/04 04:31:25;;;;;;;3.07;2.30;;;19.80;78.20;;;;;;10452877;28;20204;-24
2021/07/04 04:36:48;;;;;;;2.33;2.00;;;19.90;78.20;;;;;;10453502;28;20231;-25
2021/07/04 04:42:10;;;;;;;2.50;2.30;;;19.80;78.10;;;;;;10454143;28;20197;-24
2021/07/04 04:47:32;;;;;;;2.30;2.00;;;19.80;78.10;;;;;;10454136;28;20213;-24
2021/07/04 04:52:56;;;;;;;2.30;2.10;;;19.80;78.10;;;;;;10453868;28;20678;-24
2021/07/04 04:58:18;;;;;;;2.87;2.57;;;19.80;78.20;;;;;;10443781;28;20247;-23
2021/07/04 05:03:40;;;;;;;2.33;2.13;;;19.80;78.40;;;;;;10452460;28;20215;-24
2021/07/04 05:09:04;;;;;;;2.30;2.10;;;19.80;78.30;;;;;;10451183;28;20565;-23
2021/07/04 05:14:26;;;;;;;2.50;2.20;;;19.80;78.20;;;;;;10451392;28;20224;-24
2021/07/04 05:19:49;;;;;;;2.33;2.13;;;19.80;78.40;;;;;;10453502;28;20197;-24
2021/07/04 05:25:14;;;;;;;2.40;2.20;;;19.80;78.20;;;;;;10444291;28;20233;-24
2021/07/04 05:30:36;;;;;;;2.67;2.20;;;19.80;78.30;;;;;;10447408;28;20222;-26
2021/07/04 05:35:58;;;;;;;2.43;1.90;;;19.80;78.30;;;;;;10447197;28;20213;-25
2021/07/04 05:41:22;;;;;;;2.37;2.17;;;19.80;78.40;;;;;;10449629;28;20201;-25
2021/07/04 05:46:44;;;;;;;2.20;2.00;;;19.80;78.30;;;;;;10448267;28;20212;-24
2021/07/04 05:52:06;;;;;;;2.10;2.00;;;19.80;78.40;;;;;;10451725;28;20698;-24
2021/07/04 05:57:30;;;;;;;2.17;2.07;;;19.80;78.40;;;;;;10449175;28;20270;-25
2021/07/04 06:02:52;;;;;;;2.50;2.30;;;19.80;78.40;;;;;;10446398;28;20194;-24
2021/07/04 06:08:14;;;;;;;2.40;2.20;;;19.80;78.50;;;;;;10451063;28;20220;-24
2021/07/04 06:13:37;;;;;;;2.37;2.17;;;19.80;78.40;;;;;;10451801;28;20214;-25
2021/07/04 06:18:59;;;;;;;2.03;1.90;;;19.80;78.30;;;;;;10452821;28;20232;-24
2021/07/04 06:24:21;;;;;;;2.10;2.00;;;19.80;78.40;;;;;;10448952;28;20232;-25
2021/07/04 06:29:45;;;;;;;1.90;1.80;;;19.80;78.40;;;;;;10457155;28;20664;-26
2021/07/04 06:35:09;;;;;;;2.40;2.20;;;19.80;78.40;;;;;;10455451;28;20603;-25
2021/07/04 06:40:31;;;;;;;2.43;2.23;;;19.80;78.40;;;;;;10459417;28;20699;-24
2021/07/04 06:45:55;;;;;;;4.43;2.17;;;19.80;78.40;;;;;;10457930;28;20592;-24
2021/07/04 06:51:17;;;;;;;3.20;2.00;;;19.80;78.70;;;;;;10457406;28;20201;-25
2021/07/04 06:56:39;;;;;;;2.60;2.00;;;19.80;78.50;;;;;;10453019;28;20592;-26
2021/07/04 07:02:03;;;;;;;2.40;2.20;;;19.90;78.60;;;;;;10458219;28;20197;-24
2021/07/04 07:07:25;;;;;;;2.43;1.73;;;19.90;78.60;;;;;;10456825;28;20217;-24
2021/07/04 07:12:47;;;;;;;2.30;2.10;;;19.90;78.50;;;;;;10456783;28;20209;-25
2021/07/04 07:18:11;;;;;;;2.20;2.00;;;19.80;78.50;;;;;;10447315;28;20216;-24
2021/07/04 07:23:33;;;;;;;2.57;2.17;;;19.90;78.60;;;;;;10444723;28;20208;-25
2021/07/04 07:28:55;;;;;;;2.17;1.97;;;19.90;78.80;;;;;;10414525;28;20197;-26
2021/07/04 07:34:19;;;;;;;2.97;2.20;;;19.90;78.70;;;;;;10436474;28;20229;-24
2021/07/04 07:39:41;;;;;;;2.17;2.00;;;19.90;78.70;;;;;;10455354;28;20217;-24
2021/07/04 07:45:05;;;;;;;6.63;2.53;;;19.90;78.90;;;;;;10453901;28;20208;-24
2021/07/04 07:50:29;;;;;;;2.13;1.93;;;19.80;78.90;;;;;;10455912;28;20197;-25
2021/07/04 07:55:51;;;;;;;3.03;2.40;;;19.80;78.80;;;;;;10453580;28;20236;-26
2021/07/04 08:01:16;;;;;;;2.47;2.27;;;19.80;78.90;;;;;;10454463;28;20565;-24
2021/07/04 08:06:39;;;;;;;2.30;2.10;;;19.80;78.80;;;;;;10449936;28;20280;-25
2021/07/04 08:12:01;;;;;;;2.20;2.00;;;19.90;79.00;;;;;;10448422;28;20204;-24
2021/07/04 08:17:23;;;;;;;6.70;2.50;;;19.80;79.00;;;;;;10451718;28;20213;-25
2021/07/04 08:22:47;;;;;;;28.93;4.40;;;19.80;79.10;;;;;;10449406;28;20201;-24
2021/07/04 08:28:09;;;;;;;83.30;11.87;;;19.80;79.20;;;;;;10450494;28;20225;-25
2021/07/04 08:33:31;;;;;;;106.27;12.03;;;19.90;79.30;;;;;;10452536;28;20193;-25
2021/07/04 08:38:55;;;;;;;93.57;12.73;;;19.90;79.30;;;;;;10453701;28;20608;-26
2021/07/04 08:44:17;;;;;;;153.93;16.90;;;19.80;79.30;;;;;;10451617;28;20220;-24
2021/07/04 08:49:39;;;;;;;129.40;15.07;;;19.90;79.30;;;;;;10452436;28;20193;-25
2021/07/04 08:55:03;;;;;;;72.83;11.10;;;19.90;79.30;;;;;;10452056;28;20213;-24
2021/07/04 09:00:26;;;;;;;70.67;10.40;;;19.80;79.40;;;;;;10449592;28;20204;-25
2021/07/04 09:05:48;;;;;;;45.87;9.27;;;19.90;79.50;;;;;;10453077;28;20209;-24
2021/07/04 09:11:15;;;;;;;41.20;9.13;;;19.90;79.40;;;;;;10452878;28;20197;-24
2021/07/04 09:16:48;;;;;;;26.77;7.13;;;19.90;79.40;;;;;;10453276;28;20216;-24
2021/07/04 09:22:12;;;;;;;24.20;7.50;;;19.90;79.70;;;;;;10451901;28;20327;-26
2021/07/04 09:27:35;;;;;;;19.97;6.83;;;19.90;79.70;;;;;;10464024;22;20229;-31
2021/07/04 09:32:57;;;;;;;20.30;7.07;;;19.90;79.60;;;;;;10449754;28;20209;-28
2021/07/04 09:38:19;;;;;;;15.57;7.03;;;19.90;80.00;;;;;;10451024;28;20227;-30
2021/07/04 09:43:43;;;;;;;13.77;6.20;;;19.90;79.60;;;;;;10451729;28;20668;-29
2021/07/04 09:49:05;;;;;;;12.73;7.03;;;19.90;79.60;;;;;;10450399;28;20248;-29
2021/07/04 09:54:27;;;;;;;13.70;7.07;;;19.90;79.60;;;;;;10454592;28;20223;-29
2021/07/04 10:00:16;;;;;;;9.63;6.57;;;19.90;79.40;;;;;;10456611;28;20221;-28
2021/07/04 10:05:39;;;;;;;12.50;7.03;;;19.90;79.30;;;;;;10448865;28;20225;-28
2021/07/04 10:11:04;;;;;;;9.47;6.93;;;19.90;79.60;;;;;;10456946;28;20687;-29
2021/07/04 10:16:27;;;;;;;9.80;6.80;;;19.90;79.80;;;;;;10447205;28;20228;-29
2021/07/04 10:21:52;;;;;;;8.83;7.00;;;19.90;79.70;;;;;;10457190;28;20197;-28
2021/07/04 10:27:15;;;;;;;11.93;7.33;;;20.00;79.90;;;;;;10444312;28;20717;-30
2021/07/04 10:32:44;;;;;;;10.37;6.73;;;19.90;79.60;;;;;;10395100;28;20584;-28
2021/07/04 10:38:13;;;;;;;7.17;6.23;;;19.90;79.60;;;;;;10438802;28;20244;-27
2021/07/04 10:43:50;;;;;;;8.83;6.63;;;19.90;79.50;;;;;;10415863;28;20283;-29
2021/07/04 10:49:15;;;;;;;8.57;6.23;;;19.90;79.50;;;;;;10414705;28;20198;-29
2021/07/04 10:54:54;;;;;;;7.43;6.73;;;19.90;79.80;;;;;;10414666;28;20611;-28
2021/07/04 11:00:25;;;;;;;6.73;6.10;;;20.00;79.80;;;;;;10420282;28;20233;-29
2021/07/04 11:05:50;;;;;;;8.23;7.40;;;19.90;79.80;;;;;;10446275;28;20217;-28
2021/07/04 11:11:13;;;;;;;11.40;6.60;;;19.90;79.70;;;;;;10382378;28;20189;-31
2021/07/04 11:16:35;;;;;;;7.80;7.00;;;19.90;79.80;;;;;;10454113;28;20221;-29
2021/07/04 11:21:59;;;;;;;7.90;6.87;;;19.90;79.70;;;;;;10434349;28;20668;-29
2021/07/04 11:27:25;;;;;;;8.13;7.33;;;19.90;79.90;;;;;;10433429;28;20435;-29
2021/07/04 11:32:47;;;;;;;8.63;7.03;;;19.90;79.90;;;;;;10427974;28;20190;-28
2021/07/04 11:38:16;;;;;;;7.17;6.53;;;19.90;79.70;;;;;;10432800;28;20232;-29
2021/07/04 11:43:40;;;;;;;7.60;6.73;;;19.90;79.80;;;;;;10433876;28;20700;-30
2021/07/04 11:49:05;;;;;;;7.53;6.83;;;20.00;79.90;;;;;;10431686;28;20700;-26
2021/07/04 11:54:30;;;;;;;7.40;6.67;;;19.90;79.60;;;;;;10438262;28;20220;-26
2021/07/04 11:59:54;;;;;;;7.53;6.80;;;19.90;79.50;;;;;;10417794;28;20788;-28
2021/07/04 12:05:16;;;;;;;7.60;6.90;;;19.90;79.50;;;;;;10413842;28;20225;-27
2021/07/04 12:10:50;;;;;;;7.70;6.90;;;19.90;79.60;;;;;;10448066;28;20606;-29
2021/07/04 12:16:12;;;;;;;7.73;6.97;;;20.00;79.40;;;;;;10421968;28;20218;-28
2021/07/04 12:21:37;;;;;;;7.10;6.50;;;19.90;79.50;;;;;;10417849;28;20200;-30
2021/07/04 12:27:00;;;;;;;7.87;6.60;;;20.00;79.60;;;;;;10413235;28;20228;-27
2021/07/04 12:32:23;;;;;;;7.60;6.53;;;19.90;79.50;;;;;;10409030;28;20201;-30
2021/07/04 12:37:45;;;;;;;8.23;6.70;;;19.90;79.50;;;;;;10402924;28;20225;-27
2021/07/04 12:43:11;;;;;;;9.90;7.10;;;19.90;79.40;;;;;;10450215;28;20208;-30
2021/07/04 12:48:41;;;;;;;7.23;6.53;;;20.00;79.60;;;;;;10435691;28;20707;-26
2021/07/04 12:54:15;;;;;;;7.47;6.53;;;19.90;80.10;;;;;;10413556;28;20197;-26
2021/07/04 12:59:39;;;;;;;6.83;6.23;;;19.90;79.40;;;;;;10442895;28;20213;-27
2021/07/04 13:05:01;;;;;;;7.23;6.30;;;19.90;79.30;;;;;;10452599;28;20213;-27
2021/07/04 13:10:35;;;;;;;8.07;6.80;;;20.00;79.30;;;;;;10450648;28;20189;-28
2021/07/04 13:16:13;;;;;;;6.73;6.03;;;19.90;79.30;;;;;;10420925;28;20221;-29
2021/07/04 13:21:37;;;;;;;7.40;6.70;;;20.00;79.20;;;;;;10425382;28;20700;-28
2021/07/04 13:27:01;;;;;;;6.83;6.07;;;20.00;79.40;;;;;;10438724;28;20218;-28
2021/07/04 13:32:28;;;;;;;7.43;6.03;;;19.90;79.30;;;;;;10410803;28;20204;-28
2021/07/04 13:37:55;;;;;;;7.47;6.67;;;20.00;79.20;;;;;;10408421;28;20218;-28
2021/07/04 13:43:18;;;;;;;7.33;6.63;;;20.00;79.10;;;;;;10402030;28;20689;-28
2021/07/04 13:48:42;;;;;;;7.60;6.80;;;20.00;78.80;;;;;;10411421;28;20221;-28
2021/07/04 13:54:04;;;;;;;6.97;6.27;;;20.00;78.50;;;;;;10412482;28;20209;-29
2021/07/04 13:59:26;;;;;;;6.90;6.20;;;20.00;78.60;;;;;;10410858;28;20225;-28
2021/07/04 14:04:50;;;;;;;8.57;6.53;;;20.00;77.90;;;;;;10424315;28;20213;-28
2021/07/04 14:10:13;;;;;;;7.17;6.47;;;19.90;77.70;;;;;;10450682;28;20671;-27
2021/07/04 14:15:35;;;;;;;6.70;6.10;;;19.90;77.90;;;;;;10450458;28;20216;-30
2021/07/04 14:20:59;;;;;;;7.40;6.70;;;19.90;77.80;;;;;;10439182;28;20209;-28
2021/07/04 14:26:21;;;;;;;6.10;5.60;;;20.00;77.90;;;;;;10437236;28;20232;-30
2021/07/04 14:31:44;;;;;;;6.13;5.60;;;20.00;77.70;;;;;;10449500;28;20687;-29
2021/07/04 14:37:07;;;;;;;6.00;5.40;;;20.00;77.30;;;;;;10440722;28;20612;-31
2021/07/04 14:42:29;;;;;;;6.40;5.50;;;20.00;77.10;;;;;;10451684;28;20201;-28
2021/07/04 14:47:52;;;;;;;5.47;4.73;;;20.00;77.20;;;;;;10456813;28;20688;-29
2021/07/04 14:53:15;;;;;;;5.07;4.67;;;20.00;77.30;;;;;;10456319;28;20197;-29
2021/07/04 14:58:40;;;;;;;6.17;5.57;;;20.00;76.50;;;;;;10453904;28;20296;-27
2021/07/04 15:04:05;;;;;;;6.97;5.60;;;20.10;76.70;;;;;;10458849;28;20197;-30
2021/07/04 15:09:28;;;;;;;6.47;5.87;;;20.10;76.50;;;;;;10456141;28;20683;-30
2021/07/04 15:14:50;;;;;;;6.23;5.73;;;20.00;77.10;;;;;;10457056;28;20228;-28
2021/07/04 15:20:13;;;;;;;6.60;6.00;;;20.10;77.60;;;;;;10455567;28;20213;-31
2021/07/04 15:25:36;;;;;;;7.80;6.50;;;20.10;77.30;;;;;;10486858;22;20228;-22
2021/07/04 15:31:00;;;;;;;7.00;6.20;;;20.00;77.30;;;;;;10495425;28;20193;-24
2021/07/04 15:36:24;;;;;;;7.07;6.43;;;20.00;77.50;;;;;;10482613;28;20687;-22
2021/07/04 15:41:47;;;;;;;7.20;6.60;;;20.00;77.40;;;;;;10452960;28;20193;-27
2021/07/04 15:47:10;;;;;;;6.97;6.30;;;20.00;77.70;;;;;;10462504;28;20711;-25
2021/07/04 15:52:33;;;;;;;6.70;6.10;;;20.00;77.70;;;;;;10454350;28;20225;-27
2021/07/04 15:57:56;;;;;;;9.47;7.43;;;20.10;77.90;;;;;;10460011;28;20592;-25
2021/07/04 16:03:18;;;;;;;9.03;6.63;;;20.10;78.10;;;;;;10454470;28;20197;-23
2021/07/04 16:08:40;;;;;;;7.27;6.53;;;20.10;77.50;;;;;;10455906;28;20216;-22
2021/07/04 16:14:04;;;;;;;7.57;6.87;;;20.20;77.60;;;;;;10454613;28;20189;-23
2021/07/04 16:19:26;;;;;;;7.63;6.87;;;20.20;77.80;;;;;;10431532;28;20588;-22
2021/07/04 16:24:48;;;;;;;7.13;6.53;;;20.10;77.50;;;;;;10430955;28;20668;-23
2021/07/04 16:30:15;;;;;;;8.20;6.17;;;20.10;77.50;;;;;;10413564;28;20190;-24
2021/07/04 16:35:37;;;;;;;7.40;6.70;;;20.10;77.60;;;;;;10425286;28;20209;-23
2021/07/04 16:41:00;;;;;;;7.60;6.33;;;20.10;77.90;;;;;;10453428;28;20271;-23
2021/07/04 16:46:23;;;;;;;7.27;6.57;;;20.10;77.80;;;;;;10449686;28;20224;-23
2021/07/04 16:51:45;;;;;;;6.93;6.33;;;20.10;78.10;;;;;;10450132;28;20193;-25
2021/07/04 16:57:10;;;;;;;6.97;6.37;;;20.10;77.90;;;;;;10452287;28;20600;-22
2021/07/04 17:02:33;;;;;;;7.27;6.57;;;20.10;78.00;;;;;;10451897;28;20203;-24
2021/07/04 17:07:56;;;;;;;7.17;6.47;;;20.10;78.00;;;;;;10445430;28;20237;-23
2021/07/04 17:13:18;;;;;;;7.03;6.33;;;20.10;78.50;;;;;;10456100;28;20215;-23
2021/07/04 17:18:41;;;;;;;8.70;6.53;;;20.10;78.30;;;;;;10452242;28;20229;-23
2021/07/04 17:24:04;;;;;;;6.67;6.10;;;20.10;78.20;;;;;;10415143;28;20206;-23
2021/07/04 17:29:26;;;;;;;6.13;5.60;;;20.10;78.20;;;;;;10475212;28;20596;-24
2021/07/04 17:34:49;;;;;;;7.33;6.43;;;20.10;78.70;;;;;;10493249;28;20192;-24
2021/07/04 17:40:13;;;;;;;7.40;6.70;;;20.10;78.10;;;;;;10492469;28;20714;-23
2021/07/04 17:45:35;;;;;;;7.07;6.37;;;20.10;78.30;;;;;;10506377;28;20208;-23
2021/07/04 17:50:59;;;;;;;7.47;5.77;;;20.10;78.00;;;;;;10504397;28;20200;-23
2021/07/04 17:56:22;;;;;;;6.03;5.40;;;20.10;78.30;;;;;;10451316;28;20213;-23
2021/07/04 18:01:44;;;;;;;7.10;6.40;;;20.00;78.70;;;;;;10463518;28;20224;-22
2021/07/04 18:07:08;;;;;;;6.80;6.10;;;20.10;79.00;;;;;;10492104;28;20699;-23
2021/07/04 18:12:30;;;;;;;7.13;6.43;;;20.10;78.80;;;;;;10492336;28;20193;-24
2021/07/04 18:17:52;;;;;;;6.77;6.17;;;20.10;78.80;;;;;;10501199;28;20215;-20
2021/07/04 18:23:15;;;;;;;8.37;5.77;;;20.10;78.80;;;;;;10499016;28;20192;-22
2021/07/04 18:28:38;;;;;;;9.40;6.23;;;20.20;78.70;;;;;;10498480;28;20227;-22
2021/07/04 18:34:02;;;;;;;8.37;6.00;;;20.10;78.70;;;;;;10496817;28;20586;-23
2021/07/04 18:39:25;;;;;;;7.00;6.30;;;20.10;78.80;;;;;;10491803;28;20711;-23
2021/07/04 18:44:48;;;;;;;6.83;5.43;;;20.10;79.00;;;;;;10499684;28;20567;-23
2021/07/04 18:50:11;;;;;;;5.90;5.37;;;20.00;78.90;;;;;;10499259;28;20199;-24
2021/07/04 18:55:34;;;;;;;6.10;5.60;;;20.00;79.00;;;;;;10498408;28;20223;-24
2021/07/04 19:00:56;;;;;;;5.83;5.33;;;20.00;79.10;;;;;;10497743;28;20216;-22
2021/07/04 19:06:18;;;;;;;5.53;5.03;;;20.00;79.10;;;;;;10496971;28;20216;-22
2021/07/04 19:11:42;;;;;;;7.13;5.43;;;20.00;79.10;;;;;;10497435;28;20211;-22
2021/07/04 19:17:06;;;;;;;6.00;5.40;;;20.00;79.10;;;;;;10505584;28;20215;-24
2021/07/04 19:22:28;;;;;;;5.60;5.10;;;20.10;79.50;;;;;;10497377;28;20575;-24
2021/07/04 19:27:52;;;;;;;6.43;5.40;;;20.00;79.40;;;;;;10496416;28;20212;-20
2021/07/04 19:33:17;;;;;;;6.70;5.03;;;20.00;79.30;;;;;;10497178;28;20196;-23
2021/07/04 19:38:40;;;;;;;5.90;5.30;;;20.00;79.30;;;;;;10486306;28;20217;-25
2021/07/04 19:44:03;;;;;;;5.40;4.90;;;20.00;79.40;;;;;;10495358;28;20200;-23
2021/07/04 19:49:26;;;;;;;5.63;5.13;;;20.00;79.20;;;;;;10495914;28;20228;-22
2021/07/04 19:54:48;;;;;;;5.00;4.50;;;20.00;79.40;;;;;;10503448;28;20672;-23
2021/07/04 20:00:15;;;;;;;5.30;4.80;;;20.10;79.50;;;;;;10505767;28;20208;-24
2021/07/04 20:05:38;;;;;;;6.40;5.00;;;20.00;79.60;;;;;;10516239;28;20233;-23
2021/07/04 20:11:00;;;;;;;5.27;4.87;;;20.00;79.60;;;;;;10512897;28;20188;-23
2021/07/04 20:16:24;;;;;;;5.10;4.60;;;20.10;79.70;;;;;;10473127;28;20220;-22
2021/07/04 20:21:46;;;;;;;5.07;4.67;;;20.00;79.80;;;;;;10476497;28;20228;-23
2021/07/04 20:27:09;;;;;;;5.00;4.60;;;20.00;79.90;;;;;;10452329;28;20232;-23
2021/07/04 20:32:32;;;;;;;4.93;4.43;;;20.00;79.80;;;;;;10453494;28;20189;-22
2021/07/04 20:37:55;;;;;;;5.03;4.60;;;20.00;79.80;;;;;;10477060;28;20703;-24
2021/07/04 20:43:17;;;;;;;4.63;4.23;;;20.00;79.70;;;;;;10483715;28;20691;-22
2021/07/04 20:48:41;;;;;;;4.70;4.30;;;20.10;80.00;;;;;;10493319;28;20204;-22
2021/07/04 20:54:03;;;;;;;4.40;4.00;;;20.00;79.80;;;;;;10493480;28;20682;-23
2021/07/04 20:59:25;;;;;;;4.73;3.97;;;20.00;79.90;;;;;;10452262;28;20615;-22
2021/07/04 21:04:49;;;;;;;4.60;4.20;;;20.10;80.10;;;;;;10452367;28;20201;-22
2021/07/04 21:10:12;;;;;;;4.43;3.97;;;20.00;80.00;;;;;;10452047;28;20193;-23
2021/07/04 21:15:34;;;;;;;4.17;3.87;;;20.00;80.00;;;;;;10466646;28;20253;-22
2021/07/04 21:20:57;;;;;;;4.23;3.83;;;20.10;80.10;;;;;;10492902;28;20219;-23
2021/07/04 21:26:20;;;;;;;4.57;4.17;;;20.00;80.10;;;;;;10491548;28;20216;-24
2021/07/04 21:31:42;;;;;;;4.60;4.20;;;20.00;80.00;;;;;;10472919;22;20260;-28
2021/07/04 21:37:05;;;;;;;4.80;4.40;;;20.00;80.10;;;;;;10418053;28;20577;-27
2021/07/04 21:42:28;;;;;;;4.00;3.70;;;20.00;80.10;;;;;;10431454;28;20252;-27
2021/07/04 21:47:51;;;;;;;4.10;3.80;;;20.00;79.90;;;;;;10431319;28;20691;-27
2021/07/04 21:53:14;;;;;;;4.47;4.07;;;20.00;80.10;;;;;;10418652;28;20221;-27
2021/07/04 21:58:36;;;;;;;4.70;4.20;;;20.00;80.20;;;;;;10419222;28;20213;-27
2021/07/04 22:03:59;;;;;;;4.40;4.00;;;20.00;80.10;;;;;;10432180;28;20235;-28
2021/07/04 22:09:22;;;;;;;4.03;3.73;;;20.10;80.10;;;;;;10419115;28;20661;-28
2021/07/04 22:14:44;;;;;;;4.20;3.90;;;20.00;80.10;;;;;;10428025;28;20193;-26
2021/07/04 22:20:09;;;;;;;4.17;3.77;;;20.00;80.30;;;;;;10458835;28;20936;-29
2021/07/04 22:25:34;;;;;;;4.10;3.80;;;20.00;80.30;;;;;;10458538;28;20219;-29
2021/07/04 22:30:56;;;;;;;3.27;3.00;;;20.10;80.40;;;;;;10457465;28;20596;-28
2021/07/04 22:36:18;;;;;;;3.80;3.50;;;20.00;80.10;;;;;;10457572;28;20208;-29
2021/07/04 22:41:42;;;;;;;4.40;4.00;;;20.00;80.30;;;;;;10456208;28;20237;-29
2021/07/04 22:47:04;;;;;;;4.10;3.80;;;20.00;80.30;;;;;;10426912;28;20193;-28
2021/07/04 22:52:26;;;;;;;4.10;3.70;;;20.00;80.00;;;;;;10458819;28;20220;-30
2021/07/04 22:57:51;;;;;;;3.83;3.53;;;20.00;80.40;;;;;;10457047;28;20208;-28
2021/07/04 23:03:14;;;;;;;4.07;3.67;;;20.00;80.40;;;;;;10457039;28;20533;-28
2021/07/04 23:08:37;;;;;;;3.80;3.50;;;20.00;80.30;;;;;;10444356;28;20208;-27
2021/07/04 23:14:01;;;;;;;3.87;3.57;;;20.10;80.50;;;;;;10437147;28;20704;-28
2021/07/04 23:19:24;;;;;;;3.83;3.53;;;20.00;80.50;;;;;;10456247;28;20212;-29
2021/07/04 23:24:46;;;;;;;3.70;3.40;;;20.00;80.40;;;;;;10450444;28;20668;-30
2021/07/04 23:30:12;;;;;;;4.03;3.53;;;20.00;80.50;;;;;;10455282;28;20723;-27
2021/07/04 23:35:34;;;;;;;4.73;3.63;;;20.00;80.50;;;;;;10456565;28;20189;-28
2021/07/04 23:40:56;;;;;;;3.73;3.43;;;20.00;80.60;;;;;;10454219;28;20228;-28
2021/07/04 23:46:20;;;;;;;3.77;3.47;;;20.00;80.50;;;;;;10455148;28;20197;-27
2021/07/04 23:51:42;;;;;;;3.43;3.23;;;20.00;80.50;;;;;;10454512;28;20220;-29
2021/07/04 23:57:12;;;;;;;3.37;3.07;;;20.00;80.30;;;;;;10447801;28;20220;-30
